createdAt,value
2019-04-03T00:00:13.190Z,1001.13
2019-04-03T00:01:13.156Z,1001.14
2019-04-03T00:02:13.241Z,1001.10
2019-04-03T00:03:13.155Z,1001.18
2019-04-03T00:04:13.132Z,1001.17
2019-04-03T00:05:13.161Z,1001.21
2019-04-03T00:06:13.131Z,1001.21
2019-04-03T00:07:13.202Z,1001.15
2019-04-03T00:08:13.082Z,1001.13
2019-04-03T00:09:13.188Z,1001.13
2019-04-03T00:10:13.090Z,1001.13
2019-04-03T00:11:13.048Z,1001.11
2019-04-03T00:12:13.039Z,1001.17
2019-04-03T00:13:13.748Z,1001.08
2019-04-03T00:14:13.081Z,1001.07
2019-04-03T00:15:13.652Z,1001.11
2019-04-03T00:16:15.276Z,1001.08
2019-04-03T00:17:15.031Z,1001.11
2019-04-03T00:18:15.675Z,1001.13
2019-04-03T00:19:12.960Z,1001.18
2019-04-03T00:20:12.958Z,1001.14
2019-04-03T00:21:12.940Z,1001.18
2019-04-03T00:22:12.927Z,1001.16
2019-04-03T00:23:12.942Z,1001.08
2019-04-03T00:24:12.934Z,1001.03
2019-04-03T00:25:12.905Z,1001.12
2019-04-03T00:26:13.008Z,1001.14
2019-04-03T00:27:12.909Z,1001.10
2019-04-03T00:28:12.861Z,1001.07
2019-04-03T00:29:13.032Z,1001.11
2019-04-03T00:30:12.848Z,1001.15
2019-04-03T00:31:12.960Z,1001.14
2019-04-03T00:32:12.817Z,1001.17
2019-04-03T00:33:12.812Z,1001.14
2019-04-03T00:34:12.795Z,1001.16
2019-04-03T00:35:12.833Z,1001.15
2019-04-03T00:36:12.773Z,1001.16
2019-04-03T00:37:12.763Z,1001.18
2019-04-03T00:38:12.767Z,1001.21
2019-04-03T00:39:12.741Z,1001.16
2019-04-03T00:40:12.922Z,1001.20
2019-04-03T00:41:12.721Z,1001.16
2019-04-03T00:42:12.706Z,1001.19
2019-04-03T00:43:12.699Z,1001.21
2019-04-03T00:44:12.685Z,1001.22
2019-04-03T00:45:12.693Z,1001.22
2019-04-03T00:46:12.667Z,1001.22
2019-04-03T00:47:12.654Z,1001.26
2019-04-03T00:48:12.658Z,1001.23
2019-04-03T00:49:12.631Z,1001.25
2019-04-03T00:50:12.628Z,1001.26
2019-04-03T00:51:12.610Z,1001.25
2019-04-03T00:52:12.597Z,1001.29
2019-04-03T00:53:12.588Z,1001.30
2019-04-03T00:54:12.576Z,1001.31
2019-04-03T00:55:12.574Z,1001.26
2019-04-03T00:56:12.555Z,1001.32
2019-04-03T00:57:12.551Z,1001.21
2019-04-03T00:58:12.532Z,1001.24
2019-04-03T00:59:12.523Z,1001.21
2019-04-03T01:00:12.548Z,1001.25
2019-04-03T01:01:12.580Z,1001.32
2019-04-03T01:02:12.488Z,1001.34
2019-04-03T01:03:12.508Z,1001.32
2019-04-03T01:04:12.466Z,1001.34
2019-04-03T01:05:12.456Z,1001.32
2019-04-03T01:06:12.577Z,1001.29
2019-04-03T01:07:12.454Z,1001.24
2019-04-03T01:08:12.434Z,1001.29
2019-04-03T01:09:12.416Z,1001.31
2019-04-03T01:10:12.401Z,1001.32
2019-04-03T01:11:12.398Z,1001.28
2019-04-03T01:12:12.377Z,1001.28
2019-04-03T01:13:12.371Z,1001.31
2019-04-03T01:14:12.359Z,1001.23
2019-04-03T01:15:12.357Z,1001.21
2019-04-03T01:16:12.344Z,1001.26
2019-04-03T01:17:12.324Z,1001.28
2019-04-03T01:18:12.312Z,1001.28
2019-04-03T01:19:12.302Z,1001.14
2019-04-03T01:20:12.293Z,1001.19
2019-04-03T01:21:12.297Z,1001.17
2019-04-03T01:22:12.268Z,1001.17
2019-04-03T01:23:12.257Z,1001.21
2019-04-03T01:24:12.245Z,1001.19
2019-04-03T01:25:12.235Z,1001.17
2019-04-03T01:26:12.236Z,1001.18
2019-04-03T01:27:12.262Z,1001.19
2019-04-03T01:28:12.203Z,1001.17
2019-04-03T01:29:12.734Z,1001.11
2019-04-03T01:30:13.980Z,1001.14
2019-04-03T01:31:14.210Z,1001.09
2019-04-03T01:32:12.161Z,1001.09
2019-04-03T01:33:12.229Z,1001.13
2019-04-03T01:34:12.162Z,1001.12
2019-04-03T01:35:12.208Z,1001.10
2019-04-03T01:36:12.127Z,1001.08
2019-04-03T01:37:12.102Z,1001.11
2019-04-03T01:38:12.094Z,1001.17
2019-04-03T01:39:12.082Z,1001.14
2019-04-03T01:40:12.070Z,1001.06
2019-04-03T01:41:12.069Z,1001.06
2019-04-03T01:42:12.049Z,1001.02
2019-04-03T01:43:12.037Z,1001.02
2019-04-03T01:44:12.030Z,1000.97
2019-04-03T01:45:12.015Z,1000.98
2019-04-03T01:46:12.014Z,1001.01
2019-04-03T01:47:12.071Z,1001.03
2019-04-03T01:48:11.982Z,1001.03
2019-04-03T01:49:11.975Z,1001.06
2019-04-03T01:50:11.962Z,1001.02
2019-04-03T01:51:11.964Z,1001.01
2019-04-03T01:52:11.939Z,1000.99
2019-04-03T01:53:11.928Z,1000.94
2019-04-03T01:54:11.916Z,1000.88
2019-04-03T01:55:11.909Z,1000.87
2019-04-03T01:56:11.938Z,1000.85
2019-04-03T01:57:11.883Z,1000.80
2019-04-03T01:58:11.874Z,1000.80
2019-04-03T01:59:11.869Z,1000.77
2019-04-03T02:00:11.855Z,1000.73
2019-04-03T02:01:11.839Z,1000.73
2019-04-03T02:02:11.838Z,1000.76
2019-04-03T02:03:11.926Z,1000.73
2019-04-03T02:04:12.984Z,1000.67
2019-04-03T02:05:12.730Z,1000.73
2019-04-03T02:06:13.419Z,1000.71
2019-04-03T02:07:14.098Z,1000.66
2019-04-03T02:08:14.226Z,1000.65
2019-04-03T02:09:11.757Z,1000.66
2019-04-03T02:10:11.742Z,1000.65
2019-04-03T02:11:11.917Z,1000.61
2019-04-03T02:12:11.786Z,1000.59
2019-04-03T02:13:11.710Z,1000.62
2019-04-03T02:14:11.698Z,1000.63
2019-04-03T02:15:11.781Z,1000.65
2019-04-03T02:16:11.677Z,1000.59
2019-04-03T02:17:11.675Z,1000.58
2019-04-03T02:18:11.659Z,1000.58
2019-04-03T02:19:11.644Z,1000.53
2019-04-03T02:20:11.632Z,1000.51
2019-04-03T02:21:11.622Z,1000.46
2019-04-03T02:22:11.622Z,1000.43
2019-04-03T02:23:11.779Z,1000.43
2019-04-03T02:24:11.596Z,1000.38
2019-04-03T02:25:11.580Z,1000.35
2019-04-03T02:26:11.915Z,1000.42
2019-04-03T02:27:11.566Z,1000.34
2019-04-03T02:28:11.548Z,1000.38
2019-04-03T02:29:11.537Z,1000.40
2019-04-03T02:30:12.894Z,1000.40
2019-04-03T02:31:11.547Z,1000.35
2019-04-03T02:32:11.779Z,1000.33
2019-04-03T02:33:11.500Z,1000.32
2019-04-03T02:34:11.482Z,1000.32
2019-04-03T02:35:11.507Z,1000.38
2019-04-03T02:36:12.719Z,1000.36
2019-04-03T02:37:11.461Z,1000.35
2019-04-03T02:38:11.521Z,1000.34
2019-04-03T02:39:11.664Z,1000.35
2019-04-03T02:40:11.416Z,1000.37
2019-04-03T02:41:11.413Z,1000.39
2019-04-03T02:42:11.633Z,1000.39
2019-04-03T02:43:13.467Z,1000.39
2019-04-03T02:44:11.381Z,1000.39
2019-04-03T02:45:11.366Z,1000.38
2019-04-03T02:46:11.375Z,1000.45
2019-04-03T02:47:11.620Z,1000.44
2019-04-03T02:48:11.339Z,1000.48
2019-04-03T02:49:11.324Z,1000.52
2019-04-03T02:50:13.915Z,1000.50
2019-04-03T02:51:11.302Z,1000.49
2019-04-03T02:52:11.290Z,1000.44
2019-04-03T02:53:11.384Z,1000.46
2019-04-03T02:54:11.267Z,1000.45
2019-04-03T02:55:11.334Z,1000.45
2019-04-03T02:56:12.973Z,1000.49
2019-04-03T02:57:11.455Z,1000.54
2019-04-03T02:58:11.234Z,1000.48
2019-04-03T02:59:11.214Z,1000.51
2019-04-03T03:00:11.204Z,1000.53
2019-04-03T03:01:11.192Z,1000.50
2019-04-03T03:02:12.572Z,1000.57
2019-04-03T03:03:11.227Z,1000.56
2019-04-03T03:04:11.181Z,1000.49
2019-04-03T03:05:11.354Z,1000.50
2019-04-03T03:06:11.138Z,1000.52
2019-04-03T03:07:11.207Z,1000.50
2019-04-03T03:08:11.465Z,1000.52
2019-04-03T03:09:13.515Z,1000.48
2019-04-03T03:10:11.515Z,1000.56
2019-04-03T03:11:11.091Z,1000.54
2019-04-03T03:12:11.347Z,1000.48
2019-04-03T03:13:11.073Z,1000.40
2019-04-03T03:14:11.053Z,1000.43
2019-04-03T03:15:12.331Z,1000.39
2019-04-03T03:16:11.036Z,1000.36
2019-04-03T03:17:11.239Z,1000.41
2019-04-03T03:18:11.018Z,1000.39
2019-04-03T03:19:11.000Z,1000.37
2019-04-03T03:20:11.042Z,1000.40
2019-04-03T03:21:12.827Z,1000.42
2019-04-03T03:22:10.977Z,1000.42
2019-04-03T03:23:10.982Z,1000.47
2019-04-03T03:24:11.045Z,1000.47
2019-04-03T03:25:10.943Z,1000.48
2019-04-03T03:26:10.925Z,1000.41
2019-04-03T03:27:11.244Z,1000.43
2019-04-03T03:28:13.222Z,1000.44
2019-04-03T03:29:17.631Z,1000.48
2019-04-03T03:30:34.039Z,1000.41
2019-04-03T03:31:11.980Z,1000.43
2019-04-03T03:32:18.939Z,1000.49
2019-04-03T03:33:26.529Z,1000.44
2019-04-03T03:34:12.424Z,1000.47
2019-04-03T03:35:15.021Z,1000.39
2019-04-03T03:36:19.953Z,1000.43
2019-04-03T03:37:12.831Z,1000.41
2019-04-03T03:38:10.832Z,1000.34
2019-04-03T03:39:11.657Z,1000.41
2019-04-03T03:40:10.774Z,1000.40
2019-04-03T03:41:10.762Z,1000.40
2019-04-03T03:42:10.751Z,1000.38
2019-04-03T03:43:10.739Z,1000.35
2019-04-03T03:44:11.735Z,1000.33
2019-04-03T03:45:11.087Z,1000.39
2019-04-03T03:46:10.715Z,1000.36
2019-04-03T03:47:10.698Z,1000.37
2019-04-03T03:48:11.184Z,1000.36
2019-04-03T03:49:10.693Z,1000.36
2019-04-03T03:50:10.665Z,1000.34
2019-04-03T03:51:10.658Z,1000.31
2019-04-03T03:52:11.011Z,1000.30
2019-04-03T03:53:12.104Z,1000.33
2019-04-03T03:54:10.804Z,1000.29
2019-04-03T03:55:10.611Z,1000.32
2019-04-03T03:56:10.631Z,1000.23
2019-04-03T03:57:10.592Z,1000.22
2019-04-03T03:58:12.525Z,1000.21
2019-04-03T03:59:10.575Z,1000.21
2019-04-03T04:00:10.556Z,1000.23
2019-04-03T04:01:10.544Z,1000.22
2019-04-03T04:02:10.539Z,1000.20
2019-04-03T04:03:11.657Z,1000.27
2019-04-03T04:04:13.211Z,1000.21
2019-04-03T04:05:11.835Z,1000.19
2019-04-03T04:06:10.495Z,1000.23
2019-04-03T04:07:10.485Z,1000.22
2019-04-03T04:08:11.504Z,1000.19
2019-04-03T04:09:10.475Z,1000.21
2019-04-03T04:10:10.895Z,1000.19
2019-04-03T04:11:10.435Z,1000.18
2019-04-03T04:12:10.699Z,1000.18
2019-04-03T04:13:13.332Z,1000.18
2019-04-03T04:14:10.412Z,1000.19
2019-04-03T04:15:10.394Z,1000.15
2019-04-03T04:16:10.592Z,1000.12
2019-04-03T04:17:15.500Z,1000.09
2019-04-03T04:18:13.821Z,1000.10
2019-04-03T04:19:10.383Z,1000.12
2019-04-03T04:20:11.088Z,1000.09
2019-04-03T04:21:11.738Z,1000.12
2019-04-03T04:22:10.316Z,1000.18
2019-04-03T04:23:10.600Z,1000.20
2019-04-03T04:24:10.295Z,1000.21
2019-04-03T04:25:10.293Z,1000.23
2019-04-03T04:26:10.300Z,1000.24
2019-04-03T04:27:10.264Z,1000.25
2019-04-03T04:28:10.253Z,1000.26
2019-04-03T04:29:11.322Z,1000.26
2019-04-03T04:30:11.942Z,1000.30
2019-04-03T04:31:12.286Z,1000.29
2019-04-03T04:32:10.208Z,1000.30
2019-04-03T04:33:10.198Z,1000.28
2019-04-03T04:34:10.188Z,1000.25
2019-04-03T04:35:11.183Z,1000.24
2019-04-03T04:36:10.279Z,1000.22
2019-04-03T04:37:10.155Z,1000.18
2019-04-03T04:38:10.145Z,1000.14
2019-04-03T04:39:10.133Z,1000.15
2019-04-03T04:40:10.131Z,1000.11
2019-04-03T04:41:10.330Z,1000.12
2019-04-03T04:42:10.132Z,1000.18
2019-04-03T04:43:10.091Z,1000.14
2019-04-03T04:44:10.434Z,1000.13
2019-04-03T04:45:11.811Z,1000.15
2019-04-03T04:46:10.056Z,1000.14
2019-04-03T04:47:10.045Z,1000.13
2019-04-03T04:48:10.037Z,1000.20
2019-04-03T04:49:10.028Z,1000.20
2019-04-03T04:50:10.022Z,1000.22
2019-04-03T04:51:10.003Z,1000.25
2019-04-03T04:52:09.992Z,1000.27
2019-04-03T04:53:09.983Z,1000.28
2019-04-03T04:54:09.974Z,1000.28
2019-04-03T04:55:09.971Z,1000.24
2019-04-03T04:56:09.949Z,1000.27
2019-04-03T04:57:09.937Z,1000.34
2019-04-03T04:58:11.669Z,1000.29
2019-04-03T04:59:09.915Z,1000.32
2019-04-03T05:00:09.918Z,1000.26
2019-04-03T05:01:10.088Z,1000.30
2019-04-03T05:02:09.883Z,1000.26
2019-04-03T05:03:09.871Z,1000.22
2019-04-03T05:04:09.862Z,1000.19
2019-04-03T05:05:09.860Z,1000.18
2019-04-03T05:06:10.029Z,1000.12
2019-04-03T05:07:09.829Z,1000.12
2019-04-03T05:08:09.817Z,1000.08
2019-04-03T05:09:09.966Z,1000.10
2019-04-03T05:10:09.952Z,1000.08
2019-04-03T05:11:09.786Z,1000.07
2019-04-03T05:12:10.306Z,1000.06
2019-04-03T05:13:09.766Z,1000.09
2019-04-03T05:14:09.952Z,1000.16
2019-04-03T05:15:09.875Z,1000.20
2019-04-03T05:16:09.732Z,1000.15
2019-04-03T05:17:09.797Z,1000.20
2019-04-03T05:18:09.909Z,1000.24
2019-04-03T05:19:15.861Z,1000.18
2019-04-03T05:20:10.721Z,1000.21
2019-04-03T05:21:09.945Z,1000.18
2019-04-03T05:22:09.670Z,1000.17
2019-04-03T05:23:09.655Z,1000.11
2019-04-03T05:24:12.616Z,1000.15
2019-04-03T05:25:09.791Z,1000.12
2019-04-03T05:26:09.778Z,1000.16
2019-04-03T05:27:09.614Z,1000.12
2019-04-03T05:28:09.612Z,1000.15
2019-04-03T05:29:09.664Z,1000.11
2019-04-03T05:30:09.581Z,1000.15
2019-04-03T05:31:09.838Z,1000.12
2019-04-03T05:32:10.452Z,1000.12
2019-04-03T05:33:11.439Z,1000.10
2019-04-03T05:34:12.411Z,1000.10
2019-04-03T05:35:09.567Z,1000.14
2019-04-03T05:36:09.530Z,1000.17
2019-04-03T05:37:11.367Z,1000.22
2019-04-03T05:38:09.495Z,1000.19
2019-04-03T05:39:09.485Z,1000.25
2019-04-03T05:40:09.475Z,1000.27
2019-04-03T05:41:09.508Z,1000.27
2019-04-03T05:42:09.453Z,1000.21
2019-04-03T05:43:09.442Z,1000.19
2019-04-03T05:44:09.430Z,1000.20
2019-04-03T05:45:09.420Z,1000.19
2019-04-03T05:46:09.418Z,1000.19
2019-04-03T05:47:09.448Z,1000.18
2019-04-03T05:48:12.640Z,1000.24
2019-04-03T05:49:10.867Z,1000.21
2019-04-03T05:50:09.368Z,1000.23
2019-04-03T05:51:09.487Z,1000.26
2019-04-03T05:52:09.353Z,1000.25
2019-04-03T05:53:09.340Z,1000.27
2019-04-03T05:54:09.513Z,1000.29
2019-04-03T05:55:09.647Z,1000.29
2019-04-03T05:56:11.610Z,1000.33
2019-04-03T05:57:09.425Z,1000.33
2019-04-03T05:58:09.293Z,1000.25
2019-04-03T05:59:09.270Z,1000.30
2019-04-03T06:00:09.260Z,1000.29
2019-04-03T06:01:11.603Z,1000.27
2019-04-03T06:02:16.197Z,1000.29
2019-04-03T06:03:10.229Z,1000.30
2019-04-03T06:04:09.948Z,1000.32
2019-04-03T06:05:11.470Z,1000.27
2019-04-03T06:06:09.231Z,1000.26
2019-04-03T06:07:09.183Z,1000.24
2019-04-03T06:08:09.171Z,1000.22
2019-04-03T06:09:09.336Z,1000.22
2019-04-03T06:10:09.407Z,1000.23
2019-04-03T06:11:09.723Z,1000.23
2019-04-03T06:12:09.460Z,1000.25
2019-04-03T06:13:09.119Z,1000.19
2019-04-03T06:14:09.145Z,1000.20
2019-04-03T06:15:10.248Z,1000.21
2019-04-03T06:16:09.242Z,1000.27
2019-04-03T06:17:09.073Z,1000.23
2019-04-03T06:18:09.061Z,1000.19
2019-04-03T06:19:09.294Z,1000.16
2019-04-03T06:20:11.266Z,1000.14
2019-04-03T06:21:09.059Z,1000.13
2019-04-03T06:22:10.375Z,1000.14
2019-04-03T06:23:09.007Z,1000.13
2019-04-03T06:24:08.996Z,1000.09
2019-04-03T06:25:13.468Z,1000.08
2019-04-03T06:26:08.973Z,1000.11
2019-04-03T06:27:10.096Z,1000.15
2019-04-03T06:28:09.158Z,1000.14
2019-04-03T06:29:08.941Z,1000.12
2019-04-03T06:30:08.932Z,1000.16
2019-04-03T06:31:08.932Z,1000.12
2019-04-03T06:32:09.192Z,1000.14
2019-04-03T06:33:08.900Z,1000.14
2019-04-03T06:34:08.938Z,1000.11
2019-04-03T06:35:08.876Z,1000.11
2019-04-03T06:36:08.868Z,1000.12
2019-04-03T06:37:09.143Z,1000.09
2019-04-03T06:38:09.190Z,1000.06
2019-04-03T06:39:08.844Z,1000.05
2019-04-03T06:40:08.823Z,1000.05
2019-04-03T06:41:09.249Z,1000.14
2019-04-03T06:42:09.348Z,1000.12
2019-04-03T06:43:08.789Z,1000.11
2019-04-03T06:44:08.777Z,1000.14
2019-04-03T06:45:08.768Z,1000.09
2019-04-03T06:46:09.018Z,1000.02
2019-04-03T06:47:08.755Z,1000.04
2019-04-03T06:48:08.734Z,1000.03
2019-04-03T06:49:09.021Z,1000.03
2019-04-03T06:50:08.728Z,1000.10
2019-04-03T06:51:08.702Z,1000.09
2019-04-03T06:52:08.736Z,1000.07
2019-04-03T06:53:08.681Z,1000.07
2019-04-03T06:54:08.838Z,1000.07
2019-04-03T06:55:08.657Z,1000.05
2019-04-03T06:56:09.041Z,1000.06
2019-04-03T06:57:08.649Z,1000.06
2019-04-03T06:58:10.959Z,1000.02
2019-04-03T06:59:08.614Z,1000.05
2019-04-03T07:00:08.603Z,1000.02
2019-04-03T07:01:08.591Z,1000.09
2019-04-03T07:02:08.590Z,1000.05
2019-04-03T07:03:08.577Z,1000.08
2019-04-03T07:04:09.208Z,1000.02
2019-04-03T07:05:10.260Z,1000.08
2019-04-03T07:06:08.784Z,1000.06
2019-04-03T07:07:08.535Z,1000.03
2019-04-03T07:08:08.519Z,1000.05
2019-04-03T07:09:21.056Z,1000.11
2019-04-03T07:10:09.815Z,1000.04
2019-04-03T07:11:08.482Z,1000.10
2019-04-03T07:12:08.480Z,1000.10
2019-04-03T07:13:08.461Z,1000.13
2019-04-03T07:14:08.450Z,1000.14
2019-04-03T07:15:08.440Z,1000.14
2019-04-03T07:16:08.428Z,1000.13
2019-04-03T07:17:08.427Z,1000.12
2019-04-03T07:18:08.448Z,1000.08
2019-04-03T07:19:08.658Z,1000.11
2019-04-03T07:20:14.186Z,1000.10
2019-04-03T07:21:09.451Z,1000.08
2019-04-03T07:22:08.636Z,1000.04
2019-04-03T07:23:08.445Z,1000.05
2019-04-03T07:24:08.340Z,1000.04
2019-04-03T07:25:08.344Z,1000.03
2019-04-03T07:26:08.621Z,1000.03
2019-04-03T07:27:08.319Z,1000.06
2019-04-03T07:28:09.423Z,1000.09
2019-04-03T07:29:11.311Z,1000.09
2019-04-03T07:30:08.324Z,1000.14
2019-04-03T07:31:08.598Z,1000.14
2019-04-03T07:32:08.287Z,1000.17
2019-04-03T07:33:08.545Z,1000.16
2019-04-03T07:34:08.233Z,1000.19
2019-04-03T07:35:09.748Z,1000.17
2019-04-03T07:36:08.739Z,1000.18
2019-04-03T07:37:08.203Z,1000.16
2019-04-03T07:38:08.197Z,1000.19
2019-04-03T07:39:10.898Z,1000.16
2019-04-03T07:40:08.166Z,1000.22
2019-04-03T07:41:08.323Z,1000.18
2019-04-03T07:42:08.353Z,1000.18
2019-04-03T07:43:08.277Z,1000.19
2019-04-03T07:44:08.125Z,1000.19
2019-04-03T07:45:08.118Z,1000.18
2019-04-03T07:46:08.102Z,1000.13
2019-04-03T07:47:08.093Z,1000.16
2019-04-03T07:48:08.094Z,1000.13
2019-04-03T07:49:09.089Z,1000.14
2019-04-03T07:50:10.400Z,1000.20
2019-04-03T07:51:08.046Z,1000.17
2019-04-03T07:52:08.035Z,1000.16
2019-04-03T07:53:08.033Z,1000.18
2019-04-03T07:54:08.018Z,1000.19
2019-04-03T07:55:08.002Z,1000.22
2019-04-03T07:56:07.991Z,1000.22
2019-04-03T07:57:10.190Z,1000.22
2019-04-03T07:58:07.980Z,1000.28
2019-04-03T07:59:08.304Z,1000.22
2019-04-03T08:00:07.950Z,1000.29
2019-04-03T08:01:10.881Z,1000.32
2019-04-03T08:02:07.932Z,1000.25
2019-04-03T08:03:08.197Z,1000.28
2019-04-03T08:04:07.905Z,1000.32
2019-04-03T08:05:08.167Z,1000.24
2019-04-03T08:06:07.882Z,1000.31
2019-04-03T08:07:07.872Z,1000.29
2019-04-03T08:08:07.869Z,1000.31
2019-04-03T08:09:09.674Z,1000.30
2019-04-03T08:10:07.887Z,1000.29
2019-04-03T08:11:07.860Z,1000.20
2019-04-03T08:12:07.825Z,1000.27
2019-04-03T08:13:07.815Z,1000.25
2019-04-03T08:14:09.079Z,1000.21
2019-04-03T08:15:08.050Z,1000.19
2019-04-03T08:16:07.775Z,1000.15
2019-04-03T08:17:07.859Z,1000.15
2019-04-03T08:18:07.761Z,1000.12
2019-04-03T08:19:08.659Z,1000.10
2019-04-03T08:20:07.731Z,1000.11
2019-04-03T08:21:07.721Z,1000.03
2019-04-03T08:22:07.712Z,1000.05
2019-04-03T08:23:07.712Z,1000.09
2019-04-03T08:24:08.611Z,1000.07
2019-04-03T08:25:10.988Z,1000.06
2019-04-03T08:26:10.519Z,1000.08
2019-04-03T08:27:08.685Z,1000.05
2019-04-03T08:28:07.657Z,1000.07
2019-04-03T08:29:07.637Z,1000.10
2019-04-03T08:30:08.671Z,1000.06
2019-04-03T08:31:10.826Z,1000.09
2019-04-03T08:32:07.599Z,1000.07
2019-04-03T08:33:15.876Z,1000.06
2019-04-03T08:34:16.017Z,1000.04
2019-04-03T08:35:19.821Z,1000.04
2019-04-03T08:36:08.713Z,1000.04
2019-04-03T08:37:09.736Z,1000.03
2019-04-03T08:38:07.545Z,1000.05
2019-04-03T08:39:07.529Z,1000.06
2019-04-03T08:40:07.523Z,1000.09
2019-04-03T08:41:07.528Z,1000.07
2019-04-03T08:42:07.488Z,1000.13
2019-04-03T08:43:07.486Z,1000.08
2019-04-03T08:44:08.650Z,1000.10
2019-04-03T08:45:07.547Z,1000.10
2019-04-03T08:46:09.616Z,1000.11
2019-04-03T08:47:07.611Z,1000.08
2019-04-03T08:48:07.439Z,1000.02
2019-04-03T08:49:07.421Z,1000.07
2019-04-03T08:50:07.586Z,1000.00
2019-04-03T08:51:07.390Z,1000.04
2019-04-03T08:52:07.378Z,1000.03
2019-04-03T08:53:08.620Z,999.98
2019-04-03T08:54:09.500Z,1000.00
2019-04-03T08:55:07.352Z,999.97
2019-04-03T08:56:07.334Z,999.98
2019-04-03T08:57:07.333Z,999.96
2019-04-03T08:58:07.343Z,999.96
2019-04-03T08:59:07.311Z,999.95
2019-04-03T09:00:07.339Z,999.88
2019-04-03T09:01:10.223Z,999.88
2019-04-03T09:02:09.092Z,999.90
2019-04-03T09:03:07.264Z,999.92
2019-04-03T09:04:07.255Z,999.87
2019-04-03T09:05:07.237Z,999.83
2019-04-03T09:06:07.224Z,999.82
2019-04-03T09:07:07.218Z,999.87
2019-04-03T09:08:07.203Z,999.86
2019-04-03T09:09:07.206Z,999.88
2019-04-03T09:10:07.185Z,999.85
2019-04-03T09:11:07.210Z,999.78
2019-04-03T09:12:07.940Z,999.80
2019-04-03T09:13:16.784Z,999.80
2019-04-03T09:14:08.146Z,999.81
2019-04-03T09:15:07.126Z,999.80
2019-04-03T09:16:09.934Z,999.73
2019-04-03T09:17:07.123Z,999.75
2019-04-03T09:18:07.707Z,999.73
2019-04-03T09:19:09.403Z,999.76
2019-04-03T09:20:07.077Z,999.76
2019-04-03T09:21:07.180Z,999.68
2019-04-03T09:22:07.052Z,999.70
2019-04-03T09:23:07.040Z,999.65
2019-04-03T09:24:07.071Z,999.68
2019-04-03T09:25:07.018Z,999.67
2019-04-03T09:26:07.012Z,999.62
2019-04-03T09:27:09.383Z,999.65
2019-04-03T09:28:07.249Z,999.64
2019-04-03T09:29:06.983Z,999.60
2019-04-03T09:30:07.261Z,999.58
2019-04-03T09:31:06.957Z,999.57
2019-04-03T09:32:06.942Z,999.57
2019-04-03T09:33:06.932Z,999.52
2019-04-03T09:34:06.932Z,999.52
2019-04-03T09:35:07.129Z,999.53
2019-04-03T09:36:06.899Z,999.52
2019-04-03T09:37:07.208Z,999.54
2019-04-03T09:38:08.982Z,999.50
2019-04-03T09:39:06.876Z,999.46
2019-04-03T09:40:07.136Z,999.46
2019-04-03T09:41:06.844Z,999.44
2019-04-03T09:42:06.835Z,999.45
2019-04-03T09:43:07.146Z,999.45
2019-04-03T09:44:06.860Z,999.46
2019-04-03T09:45:06.803Z,999.45
2019-04-03T09:46:06.791Z,999.34
2019-04-03T09:47:06.778Z,999.35
2019-04-03T09:48:06.768Z,999.34
2019-04-03T09:49:07.625Z,999.33
2019-04-03T09:50:06.751Z,999.32
2019-04-03T09:51:09.032Z,999.32
2019-04-03T09:52:07.067Z,999.32
2019-04-03T09:53:06.761Z,999.35
2019-04-03T09:54:07.049Z,999.34
2019-04-03T09:55:06.703Z,999.21
2019-04-03T09:56:08.054Z,999.19
2019-04-03T09:57:06.671Z,999.23
2019-04-03T09:58:06.864Z,999.22
2019-04-03T09:59:07.445Z,999.21
2019-04-03T10:00:09.876Z,999.21
2019-04-03T10:01:06.626Z,999.19
2019-04-03T10:02:06.940Z,999.17
2019-04-03T10:03:06.604Z,999.16
2019-04-03T10:04:06.841Z,999.14
2019-04-03T10:05:06.593Z,999.18
2019-04-03T10:06:06.573Z,999.15
2019-04-03T10:07:06.561Z,999.13
2019-04-03T10:08:08.472Z,999.10
2019-04-03T10:09:06.538Z,999.13
2019-04-03T10:10:06.545Z,999.12
2019-04-03T10:11:06.778Z,999.12
2019-04-03T10:12:06.826Z,999.12
2019-04-03T10:13:06.496Z,999.08
2019-04-03T10:14:06.489Z,999.07
2019-04-03T10:15:06.486Z,999.07
2019-04-03T10:16:06.478Z,999.02
2019-04-03T10:17:07.185Z,999.01
2019-04-03T10:18:06.927Z,998.98
2019-04-03T10:19:06.431Z,999.03
2019-04-03T10:20:06.714Z,998.98
2019-04-03T10:21:06.644Z,999.00
2019-04-03T10:22:06.400Z,999.01
2019-04-03T10:23:06.581Z,998.94
2019-04-03T10:24:06.703Z,998.94
2019-04-03T10:25:06.417Z,998.94
2019-04-03T10:26:08.780Z,998.93
2019-04-03T10:27:06.343Z,998.91
2019-04-03T10:28:06.568Z,998.97
2019-04-03T10:29:06.321Z,998.91
2019-04-03T10:30:06.363Z,998.91
2019-04-03T10:31:06.303Z,998.89
2019-04-03T10:32:06.289Z,998.92
2019-04-03T10:33:06.280Z,998.89
2019-04-03T10:34:06.267Z,998.90
2019-04-03T10:35:07.325Z,998.87
2019-04-03T10:36:06.248Z,998.90
2019-04-03T10:37:06.235Z,998.88
2019-04-03T10:38:06.316Z,998.88
2019-04-03T10:39:06.214Z,998.87
2019-04-03T10:40:06.217Z,998.86
2019-04-03T10:41:06.225Z,998.77
2019-04-03T10:42:06.182Z,998.79
2019-04-03T10:43:06.701Z,998.80
2019-04-03T10:44:06.682Z,998.75
2019-04-03T10:45:06.159Z,998.79
2019-04-03T10:46:06.164Z,998.81
2019-04-03T10:47:06.153Z,998.72
2019-04-03T10:48:06.119Z,998.77
2019-04-03T10:49:06.178Z,998.78
2019-04-03T10:50:06.105Z,998.75
2019-04-03T10:51:07.095Z,998.79
2019-04-03T10:52:06.294Z,998.68
2019-04-03T10:53:06.062Z,998.76
2019-04-03T10:54:06.053Z,998.77
2019-04-03T10:55:06.050Z,998.67
2019-04-03T10:56:06.031Z,998.72
2019-04-03T10:57:06.330Z,998.68
2019-04-03T10:58:07.167Z,998.62
2019-04-03T10:59:11.472Z,998.59
2019-04-03T11:00:06.995Z,998.63
2019-04-03T11:01:05.981Z,998.59
2019-04-03T11:02:06.259Z,998.56
2019-04-03T11:03:06.259Z,998.54
2019-04-03T11:04:05.946Z,998.50
2019-04-03T11:05:06.152Z,998.49
2019-04-03T11:06:06.250Z,998.49
2019-04-03T11:07:05.907Z,998.49
2019-04-03T11:08:06.137Z,998.46
2019-04-03T11:09:05.887Z,998.44
2019-04-03T11:10:05.916Z,998.44
2019-04-03T11:11:05.872Z,998.44
2019-04-03T11:12:05.945Z,998.43
2019-04-03T11:13:05.842Z,998.39
2019-04-03T11:14:07.553Z,998.40
2019-04-03T11:15:05.932Z,998.42
2019-04-03T11:16:06.106Z,998.38
2019-04-03T11:17:05.959Z,998.39
2019-04-03T11:18:05.915Z,998.39
2019-04-03T11:19:07.261Z,998.42
2019-04-03T11:20:08.802Z,998.40
2019-04-03T11:21:05.767Z,998.35
2019-04-03T11:22:05.746Z,998.40
2019-04-03T11:23:08.136Z,998.38
2019-04-03T11:24:06.610Z,998.39
2019-04-03T11:25:05.730Z,998.36
2019-04-03T11:26:05.891Z,998.35
2019-04-03T11:27:05.804Z,998.34
2019-04-03T11:28:06.560Z,998.26
2019-04-03T11:29:08.707Z,998.24
2019-04-03T11:30:05.947Z,998.21
2019-04-03T11:31:05.656Z,998.28
2019-04-03T11:32:08.723Z,998.24
2019-04-03T11:33:05.955Z,998.20
2019-04-03T11:34:05.782Z,998.19
2019-04-03T11:35:05.600Z,998.21
2019-04-03T11:36:05.600Z,998.20
2019-04-03T11:37:06.371Z,998.17
2019-04-03T11:38:12.677Z,998.18
2019-04-03T11:39:13.917Z,998.21
2019-04-03T11:40:06.556Z,998.18
2019-04-03T11:41:12.844Z,998.15
2019-04-03T11:42:06.803Z,998.16
2019-04-03T11:43:05.604Z,998.18
2019-04-03T11:44:05.505Z,998.20
2019-04-03T11:45:05.628Z,998.18
2019-04-03T11:46:05.493Z,998.16
2019-04-03T11:47:05.616Z,998.10
2019-04-03T11:48:05.796Z,998.11
2019-04-03T11:49:05.566Z,998.04
2019-04-03T11:50:05.441Z,998.06
2019-04-03T11:51:05.436Z,998.03
2019-04-03T11:52:05.440Z,998.02
2019-04-03T11:53:07.640Z,998.06
2019-04-03T11:54:07.948Z,998.04
2019-04-03T11:55:05.699Z,998.04
2019-04-03T11:56:05.459Z,997.98
2019-04-03T11:57:05.463Z,997.97
2019-04-03T11:58:05.725Z,997.97
2019-04-03T11:59:05.348Z,997.97
2019-04-03T12:00:05.379Z,997.94
2019-04-03T12:01:05.405Z,997.93
2019-04-03T12:02:07.417Z,997.93
2019-04-03T12:03:05.591Z,997.89
2019-04-03T12:04:05.284Z,997.87
2019-04-03T12:05:05.527Z,997.86
2019-04-03T12:06:05.668Z,997.87
2019-04-03T12:07:05.254Z,997.85
2019-04-03T12:08:05.370Z,997.86
2019-04-03T12:09:05.558Z,997.87
2019-04-03T12:10:05.220Z,997.90
2019-04-03T12:11:06.101Z,997.88